Darstellungsparameter: Aktuell verwendete Einstellungen:
Skalierung der Graphiken ... ?
xyx+y,   Skalierungsfaktor:      Skalierung: Modus: x, Faktor: 1
Darstellungszeitraum ... ?
Vom - - bis: - -   Zeitraum: 26.05.2022 - 26.05.2022
Min/Max/Avg-Anzeige ... ?
Zeige MMA aktuell
Zeige MMA Monat
Zeige MMA alles
Zeige --A aktuell
Zeige --A Monat
Zeige --A alles
Keine MMA-Anzeige
MMA:
Average (ber die Originaldaten)
MMA-Basis: 26.05.2022 - 26.05.2022
Quicknavigation für Darstellung... ?
Tage:      1T, 2T, 3T, 5T -1T -2T -3T -5T +1T +2T +3T +5T
Wochen: 1W, 2W, 3W -1W -2W -3W +1W +2W +3W
Monate: 1M, 3M, 6M -1M -3M -6M +1M +3M +6M
Jahre:    1J, 3J, 5J, 10J -1J -3J -5J -10J +1J +3J +5J +10J
Nutze für die Darstellung ... ?
Originaldaten oder Mittelwerte auf ...
Stundenbasis Tagesbasis Wochenbasis
Monatsbasis Jahresbasis      Datenbasis: Original-Daten
Darstellen als:
Statistik (Auto) Statistik J:M      Darstellung:

Der gewünschte Datumsbereich war nicht gültig/verfügbar und wurde korrigiert....
Das angegebene Enddatum (04.09.2030 23:59:59) liegt in der Zukunft.
Das angegebene Startdatum (29.08.2030 00:00:00) liegt in der Zukunft.


Zur Graphik,    zurück zur Übersicht aller Sensoren.
 
Tabellarische Datenbersicht: ?
 
Sensor: Nr:Datum:Temp:Abs-Feuchte:Windchill:Wind:
Aussen-T/F 1 26-05-2022 02:00:00 15.9 C 8.8 g/m*3 15.9 C 11.3 km/h
2 26-05-2022 02:05:00 15.9 C 8.8 g/m*3 15.9 C 12.9 km/h
3 26-05-2022 02:10:00 15.9 C 8.8 g/m*3 15.9 C 11.3 km/h
4 26-05-2022 02:15:00 15.9 C 8.8 g/m*3 15.9 C 12.9 km/h
5 26-05-2022 02:20:00 15.9 C 8.8 g/m*3 15.9 C 12.9 km/h
6 26-05-2022 02:25:00 15.8 C 8.88 g/m*3 15.8 C 8.1 km/h
7 26-05-2022 02:30:00 15.8 C 8.88 g/m*3 15.8 C 11.3 km/h
8 26-05-2022 02:35:00 15.8 C 8.88 g/m*3 15.8 C 8.1 km/h
9 26-05-2022 02:40:00 15.8 C 8.88 g/m*3 15.8 C 8.1 km/h
10 26-05-2022 02:45:00 15.8 C 8.88 g/m*3 15.8 C 6.4 km/h
11 26-05-2022 02:50:00 15.8 C 8.88 g/m*3 15.8 C 11.3 km/h
12 26-05-2022 02:55:00 15.7 C 8.96 g/m*3 15.7 C 14.5 km/h
13 26-05-2022 03:00:00 15.7 C 8.96 g/m*3 15.7 C 12.9 km/h
14 26-05-2022 03:05:00 15.7 C 8.96 g/m*3 15.7 C 11.3 km/h
15 26-05-2022 03:10:00 15.7 C 8.96 g/m*3 15.7 C 14.5 km/h
16 26-05-2022 03:15:00 15.7 C 8.96 g/m*3 15.7 C 14.5 km/h
17 26-05-2022 03:20:00 15.6 C 9.04 g/m*3 15.6 C 9.7 km/h
18 26-05-2022 03:25:00 15.6 C 9.04 g/m*3 15.6 C 14.5 km/h
19 26-05-2022 03:30:00 15.6 C 9.04 g/m*3 15.6 C 11.3 km/h
20 26-05-2022 03:35:00 15.6 C 9.04 g/m*3 15.6 C 17.7 km/h
21 26-05-2022 03:40:00 15.6 C 9.18 g/m*3 15.6 C 8.1 km/h
22 26-05-2022 03:45:00 15.5 C 9.12 g/m*3 15.5 C 9.7 km/h
23 26-05-2022 03:50:00 15.4 C 9.07 g/m*3 15.4 C 11.3 km/h
24 26-05-2022 03:55:00 15.4 C 9.2 g/m*3 15.4 C 8.1 km/h
25 26-05-2022 04:00:00 15.3 C 9.14 g/m*3 15.3 C 6.4 km/h
Sensor: Nr:Datum:Temp:Abs-Feuchte:Windchill:Wind:
Aussen-T/F 26 26-05-2022 04:05:00 15.3 C 9.14 g/m*3 15.3 C 9.7 km/h
27 26-05-2022 04:10:00 15.2 C 9.22 g/m*3 15.2 C 8.1 km/h
28 26-05-2022 04:15:00 15.2 C 9.35 g/m*3 15.2 C 4.8 km/h
29 26-05-2022 04:20:00 15.1 C 9.29 g/m*3 15.1 C 6.4 km/h
30 26-05-2022 04:25:00 14.9 C 9.05 g/m*3 14.9 C 8.1 km/h
31 26-05-2022 04:30:00 14.8 C 9.12 g/m*3 14.8 C 6.4 km/h
32 26-05-2022 04:35:00 14.7 C 9.07 g/m*3 14.7 C 6.4 km/h
33 26-05-2022 04:40:00 14.7 C 9.19 g/m*3 14.7 C 6.4 km/h
34 26-05-2022 04:45:00 14.6 C 9.26 g/m*3 14.6 C 6.4 km/h
35 26-05-2022 04:50:00 14.6 C 9.26 g/m*3 14.6 C 3.2 km/h
36 26-05-2022 04:55:00 14.6 C 9.26 g/m*3 14.6 C 4.8 km/h
37 26-05-2022 05:00:00 14.6 C 9.26 g/m*3 14.6 C 4.8 km/h
38 26-05-2022 05:05:00 14.6 C 9.26 g/m*3 14.6 C 9.7 km/h
39 26-05-2022 05:10:00 14.7 C 9.32 g/m*3 14.7 C 11.3 km/h
40 26-05-2022 05:15:00 14.8 C 9.37 g/m*3 14.8 C 14.5 km/h
41 26-05-2022 05:20:00 14.8 C 9.37 g/m*3 14.8 C 12.9 km/h
42 26-05-2022 05:25:00 14.8 C 9.37 g/m*3 14.8 C 11.3 km/h
43 26-05-2022 05:30:00 14.8 C 9.37 g/m*3 14.8 C 22.5 km/h
44 26-05-2022 05:35:00 14.8 C 9.37 g/m*3 14.8 C 12.9 km/h
45 26-05-2022 05:40:00 14.7 C 9.44 g/m*3 14.7 C 16.1 km/h
46 26-05-2022 05:45:00 14.6 C 9.39 g/m*3 14.6 C 9.7 km/h
47 26-05-2022 05:50:00 14.5 C 9.33 g/m*3 14.5 C 9.7 km/h
48 26-05-2022 05:55:00 14.5 C 9.45 g/m*3 14.5 C 11.3 km/h
49 26-05-2022 06:00:00 14.6 C 9.51 g/m*3 14.6 C 12.9 km/h
50 26-05-2022 06:05:00 14.6 C 9.51 g/m*3 14.6 C 9.7 km/h
Sensor: Nr:Datum:Temp:Abs-Feuchte:Windchill:Wind:
Aussen-T/F 51 26-05-2022 06:10:00 14.6 C 9.51 g/m*3 14.6 C 6.4 km/h
52 26-05-2022 06:15:00 14.6 C 9.64 g/m*3 14.6 C 9.7 km/h
53 26-05-2022 06:20:00 14.7 C 9.57 g/m*3 14.7 C 12.9 km/h
54 26-05-2022 06:25:00 14.7 C 9.57 g/m*3 14.7 C 8.1 km/h
55 26-05-2022 06:30:00 14.7 C 9.57 g/m*3 14.7 C 9.7 km/h
56 26-05-2022 06:35:00 14.8 C 9.63 g/m*3 14.8 C 9.7 km/h
57 26-05-2022 06:40:00 14.8 C 9.63 g/m*3 14.8 C 11.3 km/h
58 26-05-2022 06:45:00 14.8 C 9.75 g/m*3 14.8 C 11.3 km/h
59 26-05-2022 06:50:00 14.9 C 9.81 g/m*3 14.9 C 12.9 km/h
60 26-05-2022 06:55:00 14.9 C 9.81 g/m*3 14.9 C 16.1 km/h
61 26-05-2022 07:00:00 14.9 C 9.81 g/m*3 14.9 C 12.9 km/h
62 26-05-2022 07:05:00 15 C 9.87 g/m*3 15 C 16.1 km/h
63 26-05-2022 07:10:00 15.1 C 9.93 g/m*3 15.1 C 11.3 km/h
64 26-05-2022 07:15:00 15.1 C 9.8 g/m*3 15.1 C 16.1 km/h
65 26-05-2022 07:20:00 15.2 C 9.86 g/m*3 15.2 C 16.1 km/h
66 26-05-2022 07:25:00 15.2 C 9.86 g/m*3 15.2 C 16.1 km/h
67 26-05-2022 07:30:00 15.3 C 9.92 g/m*3 15.3 C 12.9 km/h
68 26-05-2022 07:35:00 15.4 C 9.99 g/m*3 15.4 C 11.3 km/h
69 26-05-2022 07:40:00 15.4 C 10.12 g/m*3 15.4 C 3.2 km/h
70 26-05-2022 07:45:00 15.5 C 10.18 g/m*3 15.5 C 4.8 km/h
71 26-05-2022 07:50:00 15.6 C 10.24 g/m*3 15.6 C 6.4 km/h
72 26-05-2022 07:55:00 15.7 C 10.3 g/m*3 15.7 C 9.7 km/h

Legende:
   Min
   Max


Maximal/Minimal-Werte vom 26.05.2022 - 26.05.2022

Sensor Min Max Avg
Temp
(Aussen-T/F)
14.5 °C
26-05-2022  05:50:00
15.9 °C
26-05-2022  02:00:00
15.17 °C
Abs-Feuchte
(Aussen-T/F)
8.8 g/m*3
26-05-2022  02:00:00
10.3 g/m*3
26-05-2022  07:55:00
9.22 g/m*3
Windchill
(Aussen-T/F)
14.5 C
26-05-2022  05:50:00
15.9 C
26-05-2022  02:00:00
14.96 C

Die Daten stammen von einer Davis Vantage Pro 2 Wetter-Station und werden unter Linux mit der Software wview2wettercgi und aufbereitet. Alle Angaben erfolgen ohne Gewähr für ihre Vollständigkeit oder Richtigkeit.
Kontakt: Rainer Krienke krienke@uni-koblenz.de . Meine Webseiten an der Uni Koblenz oder privat.
Version: $Revision: 0.78 $